sensor_id;sensor_type;location;lat;lon;timestamp;P1;durP1;ratioP1;P2;durP2;ratioP2
72584;SDS011;60618;40.084;32.908;2022-09-02T00:02:01;12.10;;;7.90;;
72584;SDS011;60618;40.084;32.908;2022-09-02T00:04:13;15.48;;;8.98;;
72584;SDS011;60618;40.084;32.908;2022-09-02T00:06:44;14.00;;;8.67;;
72584;SDS011;60618;40.084;32.908;2022-09-02T00:09:13;12.60;;;8.52;;
72584;SDS011;60618;40.084;32.908;2022-09-02T00:11:43;12.55;;;8.20;;
72584;SDS011;60618;40.084;32.908;2022-09-02T00:14:14;10.63;;;7.68;;
72584;SDS011;60618;40.084;32.908;2022-09-02T00:16:48;11.43;;;7.63;;
72584;SDS011;60618;40.084;32.908;2022-09-02T00:19:19;13.13;;;8.33;;
72584;SDS011;60618;40.084;32.908;2022-09-02T00:21:47;11.10;;;8.30;;
72584;SDS011;60618;40.084;32.908;2022-09-02T00:24:15;13.73;;;8.45;;
72584;SDS011;60618;40.084;32.908;2022-09-02T00:26:42;14.63;;;8.93;;
72584;SDS011;60618;40.084;32.908;2022-09-02T00:29:09;10.43;;;7.38;;
72584;SDS011;60618;40.084;32.908;2022-09-02T00:31:37;13.60;;;7.80;;
72584;SDS011;60618;40.084;32.908;2022-09-02T00:34:04;12.30;;;7.60;;
72584;SDS011;60618;40.084;32.908;2022-09-02T00:36:31;10.63;;;7.15;;
72584;SDS011;60618;40.084;32.908;2022-09-02T00:38:58;13.20;;;8.43;;
72584;SDS011;60618;40.084;32.908;2022-09-02T00:41:26;10.57;;;7.43;;
72584;SDS011;60618;40.084;32.908;2022-09-02T00:43:55;11.60;;;7.20;;
72584;SDS011;60618;40.084;32.908;2022-09-02T00:46:26;11.07;;;7.65;;
72584;SDS011;60618;40.084;32.908;2022-09-02T00:51:52;12.43;;;7.85;;
72584;SDS011;60618;40.084;32.908;2022-09-02T00:54:24;11.95;;;8.40;;
72584;SDS011;60618;40.084;32.908;2022-09-02T00:56:54;11.87;;;7.77;;
72584;SDS011;60618;40.084;32.908;2022-09-02T00:59:25;13.02;;;8.40;;
72584;SDS011;60618;40.084;32.908;2022-09-02T01:02:01;13.32;;;8.10;;
72584;SDS011;60618;40.084;32.908;2022-09-02T01:04:29;15.35;;;7.60;;
72584;SDS011;60618;40.084;32.908;2022-09-02T01:06:56;11.80;;;7.85;;
72584;SDS011;60618;40.084;32.908;2022-09-02T01:09:22;12.60;;;7.90;;
72584;SDS011;60618;40.084;32.908;2022-09-02T01:11:49;11.23;;;7.90;;
72584;SDS011;60618;40.084;32.908;2022-09-02T01:14:16;11.63;;;7.38;;
72584;SDS011;60618;40.084;32.908;2022-09-02T01:16:48;10.30;;;7.10;;
72584;SDS011;60618;40.084;32.908;2022-09-02T01:19:41;13.10;;;7.97;;
72584;SDS011;60618;40.084;32.908;2022-09-02T01:22:18;12.57;;;7.20;;
72584;SDS011;60618;40.084;32.908;2022-09-02T01:24:49;12.70;;;7.03;;
72584;SDS011;60618;40.084;32.908;2022-09-02T01:27:17;10.45;;;6.85;;
72584;SDS011;60618;40.084;32.908;2022-09-02T01:29:54;10.40;;;7.32;;
72584;SDS011;60618;40.084;32.908;2022-09-02T01:32:24;11.13;;;7.60;;
72584;SDS011;60618;40.084;32.908;2022-09-02T01:34:51;11.60;;;7.53;;
72584;SDS011;60618;40.084;32.908;2022-09-02T01:37:19;11.85;;;7.57;;
72584;SDS011;60618;40.084;32.908;2022-09-02T01:39:46;11.50;;;7.45;;
72584;SDS011;60618;40.084;32.908;2022-09-02T01:42:13;11.10;;;7.22;;
72584;SDS011;60618;40.084;32.908;2022-09-02T01:44:41;11.50;;;7.22;;
72584;SDS011;60618;40.084;32.908;2022-09-02T01:47:11;11.13;;;7.33;;
72584;SDS011;60618;40.084;32.908;2022-09-02T01:49:40;11.07;;;7.40;;
72584;SDS011;60618;40.084;32.908;2022-09-02T01:52:08;11.10;;;7.20;;
72584;SDS011;60618;40.084;32.908;2022-09-02T01:54:35;11.07;;;7.50;;
72584;SDS011;60618;40.084;32.908;2022-09-02T01:57:02;10.00;;;7.05;;
72584;SDS011;60618;40.084;32.908;2022-09-02T01:59:29;11.37;;;7.20;;
72584;SDS011;60618;40.084;32.908;2022-09-02T02:01:55;10.63;;;6.63;;
72584;SDS011;60618;40.084;32.908;2022-09-02T02:04:23;11.15;;;7.15;;
72584;SDS011;60618;40.084;32.908;2022-09-02T02:06:50;11.80;;;7.10;;
72584;SDS011;60618;40.084;32.908;2022-09-02T02:09:20;10.93;;;6.93;;
72584;SDS011;60618;40.084;32.908;2022-09-02T02:11:47;9.93;;;6.50;;
72584;SDS011;60618;40.084;32.908;2022-09-02T02:14:15;10.45;;;6.55;;
72584;SDS011;60618;40.084;32.908;2022-09-02T02:16:42;10.07;;;7.10;;
72584;SDS011;60618;40.084;32.908;2022-09-02T02:19:10;10.98;;;6.70;;
72584;SDS011;60618;40.084;32.908;2022-09-02T02:21:37;11.00;;;6.95;;
72584;SDS011;60618;40.084;32.908;2022-09-02T02:24:05;9.33;;;6.47;;
72584;SDS011;60618;40.084;32.908;2022-09-02T02:26:33;10.25;;;6.68;;
72584;SDS011;60618;40.084;32.908;2022-09-02T02:29:01;12.13;;;6.45;;
72584;SDS011;60618;40.084;32.908;2022-09-02T02:31:28;9.73;;;6.10;;
72584;SDS011;60618;40.084;32.908;2022-09-02T02:33:55;10.38;;;6.35;;
72584;SDS011;60618;40.084;32.908;2022-09-02T02:36:22;10.07;;;6.60;;
72584;SDS011;60618;40.084;32.908;2022-09-02T02:38:49;11.48;;;7.13;;
72584;SDS011;60618;40.084;32.908;2022-09-02T02:41:15;11.43;;;6.72;;
72584;SDS011;60618;40.084;32.908;2022-09-02T02:43:42;10.30;;;6.90;;
72584;SDS011;60618;40.084;32.908;2022-09-02T02:46:09;10.77;;;6.07;;
72584;SDS011;60618;40.084;32.908;2022-09-02T02:48:36;9.40;;;6.47;;
72584;SDS011;60618;40.084;32.908;2022-09-02T02:51:04;10.43;;;6.32;;
72584;SDS011;60618;40.084;32.908;2022-09-02T02:53:32;9.05;;;6.20;;
72584;SDS011;60618;40.084;32.908;2022-09-02T02:55:59;11.02;;;7.30;;
72584;SDS011;60618;40.084;32.908;2022-09-02T02:58:26;11.02;;;6.65;;
72584;SDS011;60618;40.084;32.908;2022-09-02T03:00:54;11.77;;;6.20;;
72584;SDS011;60618;40.084;32.908;2022-09-02T03:03:22;11.73;;;6.80;;
72584;SDS011;60618;40.084;32.908;2022-09-02T03:05:49;10.25;;;7.13;;
72584;SDS011;60618;40.084;32.908;2022-09-02T03:08:18;11.05;;;6.90;;
72584;SDS011;60618;40.084;32.908;2022-09-02T03:10:49;9.80;;;6.47;;
72584;SDS011;60618;40.084;32.908;2022-09-02T03:13:16;10.17;;;6.40;;
72584;SDS011;60618;40.084;32.908;2022-09-02T03:15:43;9.65;;;6.15;;
72584;SDS011;60618;40.084;32.908;2022-09-02T03:18:10;10.57;;;6.35;;
72584;SDS011;60618;40.084;32.908;2022-09-02T03:20:38;10.52;;;6.65;;
72584;SDS011;60618;40.084;32.908;2022-09-02T03:23:05;10.00;;;6.70;;
72584;SDS011;60618;40.084;32.908;2022-09-02T03:25:33;10.43;;;6.53;;
72584;SDS011;60618;40.084;32.908;2022-09-02T03:28:02;10.90;;;6.85;;
72584;SDS011;60618;40.084;32.908;2022-09-02T03:30:30;11.10;;;7.05;;
72584;SDS011;60618;40.084;32.908;2022-09-02T03:33:00;11.18;;;6.63;;
72584;SDS011;60618;40.084;32.908;2022-09-02T03:35:30;13.63;;;6.72;;
72584;SDS011;60618;40.084;32.908;2022-09-02T03:37:58;11.03;;;6.40;;
72584;SDS011;60618;40.084;32.908;2022-09-02T03:40:26;9.10;;;5.75;;
72584;SDS011;60618;40.084;32.908;2022-09-02T03:42:54;9.55;;;6.80;;
72584;SDS011;60618;40.084;32.908;2022-09-02T03:45:26;9.50;;;6.00;;
72584;SDS011;60618;40.084;32.908;2022-09-02T03:47:53;11.65;;;6.75;;
72584;SDS011;60618;40.084;32.908;2022-09-02T03:50:25;9.33;;;6.50;;
72584;SDS011;60618;40.084;32.908;2022-09-02T03:52:55;9.10;;;5.90;;
72584;SDS011;60618;40.084;32.908;2022-09-02T03:55:22;10.43;;;6.50;;
72584;SDS011;60618;40.084;32.908;2022-09-02T03:57:50;9.77;;;6.85;;
72584;SDS011;60618;40.084;32.908;2022-09-02T04:00:18;9.48;;;5.97;;
72584;SDS011;60618;40.084;32.908;2022-09-02T04:02:47;10.70;;;6.87;;
72584;SDS011;60618;40.084;32.908;2022-09-02T04:05:15;11.55;;;6.82;;
72584;SDS011;60618;40.084;32.908;2022-09-02T04:07:43;9.88;;;6.07;;
72584;SDS011;60618;40.084;32.908;2022-09-02T04:10:12;10.45;;;5.78;;
72584;SDS011;60618;40.084;32.908;2022-09-02T04:12:39;11.88;;;6.72;;
72584;SDS011;60618;40.084;32.908;2022-09-02T04:15:07;11.83;;;6.10;;
72584;SDS011;60618;40.084;32.908;2022-09-02T04:17:36;8.88;;;6.53;;
72584;SDS011;60618;40.084;32.908;2022-09-02T04:20:05;9.63;;;6.13;;
72584;SDS011;60618;40.084;32.908;2022-09-02T04:22:33;11.35;;;6.03;;
72584;SDS011;60618;40.084;32.908;2022-09-02T04:25:00;10.50;;;6.20;;
72584;SDS011;60618;40.084;32.908;2022-09-02T04:27:28;9.07;;;6.30;;
72584;SDS011;60618;40.084;32.908;2022-09-02T04:29:55;10.43;;;6.47;;
72584;SDS011;60618;40.084;32.908;2022-09-02T04:32:22;8.32;;;5.65;;
72584;SDS011;60618;40.084;32.908;2022-09-02T04:34:49;9.90;;;6.55;;
72584;SDS011;60618;40.084;32.908;2022-09-02T04:37:16;10.07;;;6.32;;
72584;SDS011;60618;40.084;32.908;2022-09-02T04:39:43;10.60;;;6.30;;
72584;SDS011;60618;40.084;32.908;2022-09-02T04:42:10;11.30;;;6.47;;
72584;SDS011;60618;40.084;32.908;2022-09-02T04:44:37;11.65;;;6.00;;
72584;SDS011;60618;40.084;32.908;2022-09-02T04:47:04;10.40;;;6.25;;
72584;SDS011;60618;40.084;32.908;2022-09-02T04:49:31;10.40;;;6.47;;
72584;SDS011;60618;40.084;32.908;2022-09-02T04:51:58;13.83;;;6.20;;
72584;SDS011;60618;40.084;32.908;2022-09-02T04:54:25;8.23;;;5.70;;
72584;SDS011;60618;40.084;32.908;2022-09-02T05:06:49;9.85;;;6.20;;
72584;SDS011;60618;40.084;32.908;2022-09-02T05:09:16;10.13;;;6.03;;
72584;SDS011;60618;40.084;32.908;2022-09-02T05:11:43;10.45;;;6.10;;
72584;SDS011;60618;40.084;32.908;2022-09-02T05:14:10;11.60;;;5.97;;
72584;SDS011;60618;40.084;32.908;2022-09-02T05:16:37;10.02;;;6.22;;
72584;SDS011;60618;40.084;32.908;2022-09-02T05:19:05;9.43;;;6.40;;
72584;SDS011;60618;40.084;32.908;2022-09-02T05:21:34;9.50;;;5.77;;
72584;SDS011;60618;40.084;32.908;2022-09-02T05:24:05;11.13;;;6.22;;
72584;SDS011;60618;40.084;32.908;2022-09-02T05:26:31;9.70;;;5.97;;
72584;SDS011;60618;40.084;32.908;2022-09-02T05:28:58;9.23;;;5.82;;
72584;SDS011;60618;40.084;32.908;2022-09-02T05:31:25;9.65;;;5.95;;
72584;SDS011;60618;40.084;32.908;2022-09-02T05:33:53;10.80;;;6.17;;
72584;SDS011;60618;40.084;32.908;2022-09-02T05:36:21;10.32;;;6.20;;
72584;SDS011;60618;40.084;32.908;2022-09-02T05:38:48;7.88;;;6.00;;
72584;SDS011;60618;40.084;32.908;2022-09-02T05:41:17;10.70;;;5.75;;
72584;SDS011;60618;40.084;32.908;2022-09-02T05:43:45;8.85;;;5.72;;
72584;SDS011;60618;40.084;32.908;2022-09-02T05:46:13;9.10;;;6.10;;
72584;SDS011;60618;40.084;32.908;2022-09-02T05:48:42;11.38;;;6.15;;
72584;SDS011;60618;40.084;32.908;2022-09-02T05:51:10;10.23;;;6.18;;
72584;SDS011;60618;40.084;32.908;2022-09-02T05:53:37;8.27;;;5.78;;
72584;SDS011;60618;40.084;32.908;2022-09-02T05:56:04;10.88;;;6.10;;
72584;SDS011;60618;40.084;32.908;2022-09-02T05:58:31;10.63;;;6.53;;
72584;SDS011;60618;40.084;32.908;2022-09-02T06:00:58;11.23;;;6.78;;
72584;SDS011;60618;40.084;32.908;2022-09-02T06:03:25;9.63;;;5.80;;
72584;SDS011;60618;40.084;32.908;2022-09-02T06:05:55;8.18;;;6.20;;
72584;SDS011;60618;40.084;32.908;2022-09-02T06:08:28;10.10;;;6.28;;
72584;SDS011;60618;40.084;32.908;2022-09-02T06:10:55;10.77;;;6.37;;
72584;SDS011;60618;40.084;32.908;2022-09-02T06:13:22;9.75;;;6.47;;
72584;SDS011;60618;40.084;32.908;2022-09-02T06:15:49;10.23;;;6.10;;
72584;SDS011;60618;40.084;32.908;2022-09-02T06:18:17;8.25;;;6.18;;
72584;SDS011;60618;40.084;32.908;2022-09-02T06:20:45;10.68;;;6.10;;
72584;SDS011;60618;40.084;32.908;2022-09-02T06:23:13;9.97;;;6.07;;
72584;SDS011;60618;40.084;32.908;2022-09-02T06:25:42;10.82;;;6.22;;
72584;SDS011;60618;40.084;32.908;2022-09-02T06:28:10;10.77;;;6.43;;
72584;SDS011;60618;40.084;32.908;2022-09-02T06:30:38;10.30;;;6.55;;
72584;SDS011;60618;40.084;32.908;2022-09-02T06:33:07;11.00;;;6.60;;
72584;SDS011;60618;40.084;32.908;2022-09-02T06:35:36;10.97;;;5.97;;
72584;SDS011;60618;40.084;32.908;2022-09-02T06:38:04;10.70;;;6.32;;
72584;SDS011;60618;40.084;32.908;2022-09-02T06:40:32;12.43;;;7.25;;
72584;SDS011;60618;40.084;32.908;2022-09-02T06:42:59;11.65;;;7.78;;
72584;SDS011;60618;40.084;32.908;2022-09-02T06:45:26;14.60;;;7.57;;
72584;SDS011;60618;40.084;32.908;2022-09-02T06:47:53;12.10;;;7.07;;
72584;SDS011;60618;40.084;32.908;2022-09-02T06:50:20;11.75;;;7.13;;
72584;SDS011;60618;40.084;32.908;2022-09-02T06:52:47;13.32;;;7.40;;
72584;SDS011;60618;40.084;32.908;2022-09-02T06:55:14;11.77;;;7.32;;
72584;SDS011;60618;40.084;32.908;2022-09-02T06:57:41;11.63;;;6.80;;
72584;SDS011;60618;40.084;32.908;2022-09-02T07:00:08;11.73;;;7.40;;
72584;SDS011;60618;40.084;32.908;2022-09-02T07:02:36;12.10;;;6.70;;
72584;SDS011;60618;40.084;32.908;2022-09-02T07:05:03;13.13;;;6.68;;
72584;SDS011;60618;40.084;32.908;2022-09-02T07:07:31;11.00;;;7.38;;
72584;SDS011;60618;40.084;32.908;2022-09-02T07:10:00;11.38;;;7.55;;
72584;SDS011;60618;40.084;32.908;2022-09-02T07:12:27;11.57;;;7.13;;
72584;SDS011;60618;40.084;32.908;2022-09-02T07:14:54;9.55;;;6.18;;
72584;SDS011;60618;40.084;32.908;2022-09-02T07:17:21;10.65;;;6.80;;
72584;SDS011;60618;40.084;32.908;2022-09-02T07:19:48;8.93;;;5.93;;
72584;SDS011;60618;40.084;32.908;2022-09-02T07:22:16;10.20;;;6.57;;
72584;SDS011;60618;40.084;32.908;2022-09-02T07:24:44;14.67;;;7.30;;
72584;SDS011;60618;40.084;32.908;2022-09-02T07:27:11;10.75;;;6.82;;
72584;SDS011;60618;40.084;32.908;2022-09-02T07:29:38;9.35;;;6.63;;
72584;SDS011;60618;40.084;32.908;2022-09-02T07:32:05;10.98;;;6.70;;
72584;SDS011;60618;40.084;32.908;2022-09-02T07:34:31;9.85;;;6.57;;
72584;SDS011;60618;40.084;32.908;2022-09-02T07:36:59;8.77;;;6.23;;
72584;SDS011;60618;40.084;32.908;2022-09-02T07:39:32;10.23;;;6.82;;
72584;SDS011;60618;40.084;32.908;2022-09-02T07:41:59;12.43;;;6.75;;
72584;SDS011;60618;40.084;32.908;2022-09-02T07:44:26;10.43;;;6.78;;
72584;SDS011;60618;40.084;32.908;2022-09-02T07:46:53;10.88;;;7.40;;
72584;SDS011;60618;40.084;32.908;2022-09-02T07:49:20;12.90;;;7.13;;
72584;SDS011;60618;40.084;32.908;2022-09-02T07:51:49;10.68;;;6.82;;
72584;SDS011;60618;40.084;32.908;2022-09-02T07:54:18;9.85;;;6.60;;
72584;SDS011;60618;40.084;32.908;2022-09-02T07:56:46;12.73;;;7.10;;
72584;SDS011;60618;40.084;32.908;2022-09-02T07:59:14;12.65;;;7.03;;
72584;SDS011;60618;40.084;32.908;2022-09-02T08:01:41;10.63;;;6.33;;
72584;SDS011;60618;40.084;32.908;2022-09-02T08:04:14;9.77;;;6.00;;
72584;SDS011;60618;40.084;32.908;2022-09-02T08:06:41;10.10;;;6.65;;
72584;SDS011;60618;40.084;32.908;2022-09-02T08:09:08;9.73;;;6.45;;
72584;SDS011;60618;40.084;32.908;2022-09-02T08:11:40;10.07;;;6.40;;
72584;SDS011;60618;40.084;32.908;2022-09-02T08:14:11;11.17;;;6.73;;
72584;SDS011;60618;40.084;32.908;2022-09-02T08:16:42;10.43;;;6.70;;
72584;SDS011;60618;40.084;32.908;2022-09-02T08:19:10;11.63;;;7.00;;
72584;SDS011;60618;40.084;32.908;2022-09-02T08:21:38;12.15;;;6.75;;
72584;SDS011;60618;40.084;32.908;2022-09-02T08:24:04;10.57;;;6.93;;
72584;SDS011;60618;40.084;32.908;2022-09-02T08:26:31;10.07;;;6.73;;
72584;SDS011;60618;40.084;32.908;2022-09-02T08:28:58;14.98;;;7.90;;
72584;SDS011;60618;40.084;32.908;2022-09-02T08:31:26;12.32;;;7.10;;
72584;SDS011;60618;40.084;32.908;2022-09-02T08:33:53;11.20;;;6.78;;
72584;SDS011;60618;40.084;32.908;2022-09-02T08:36:20;14.23;;;7.50;;
72584;SDS011;60618;40.084;32.908;2022-09-02T08:38:47;10.40;;;7.47;;
72584;SDS011;60618;40.084;32.908;2022-09-02T08:41:35;11.93;;;7.00;;
72584;SDS011;60618;40.084;32.908;2022-09-02T08:44:28;10.80;;;7.30;;
72584;SDS011;60618;40.084;32.908;2022-09-02T08:47:00;10.35;;;7.13;;
72584;SDS011;60618;40.084;32.908;2022-09-02T08:49:32;9.20;;;6.30;;
72584;SDS011;60618;40.084;32.908;2022-09-02T08:52:04;9.73;;;7.10;;
72584;SDS011;60618;40.084;32.908;2022-09-02T08:54:50;10.27;;;6.88;;
72584;SDS011;60618;40.084;32.908;2022-09-02T08:57:20;13.35;;;6.88;;
72584;SDS011;60618;40.084;32.908;2022-09-02T08:59:53;10.80;;;6.40;;
72584;SDS011;60618;40.084;32.908;2022-09-02T09:02:31;10.63;;;7.28;;
72584;SDS011;60618;40.084;32.908;2022-09-02T09:16:42;8.68;;;6.28;;
72584;SDS011;60618;40.084;32.908;2022-09-02T09:19:13;14.87;;;7.30;;
72584;SDS011;60618;40.084;32.908;2022-09-02T09:21:42;10.35;;;6.85;;
72584;SDS011;60618;40.084;32.908;2022-09-02T09:24:16;12.45;;;7.10;;
72584;SDS011;60618;40.084;32.908;2022-09-02T09:26:46;9.82;;;6.35;;
72584;SDS011;60618;40.084;32.908;2022-09-02T09:29:13;12.15;;;7.10;;
72584;SDS011;60618;40.084;32.908;2022-09-02T09:31:41;10.60;;;6.67;;
72584;SDS011;60618;40.084;32.908;2022-09-02T09:34:09;9.02;;;5.93;;
72584;SDS011;60618;40.084;32.908;2022-09-02T09:41:45;10.85;;;6.15;;
72584;SDS011;60618;40.084;32.908;2022-09-02T09:44:32;8.90;;;5.57;;
72584;SDS011;60618;40.084;32.908;2022-09-02T09:47:04;11.43;;;5.90;;
72584;SDS011;60618;40.084;32.908;2022-09-02T09:49:32;15.23;;;6.70;;
72584;SDS011;60618;40.084;32.908;2022-09-02T09:52:00;10.07;;;6.53;;
72584;SDS011;60618;40.084;32.908;2022-09-02T09:54:27;9.75;;;6.72;;
72584;SDS011;60618;40.084;32.908;2022-09-02T09:56:54;11.60;;;6.90;;
72584;SDS011;60618;40.084;32.908;2022-09-02T09:59:31;11.32;;;6.63;;
72584;SDS011;60618;40.084;32.908;2022-09-02T10:02:18;9.40;;;6.40;;
72584;SDS011;60618;40.084;32.908;2022-09-02T10:04:47;12.45;;;7.40;;
72584;SDS011;60618;40.084;32.908;2022-09-02T10:07:20;10.73;;;6.43;;
72584;SDS011;60618;40.084;32.908;2022-09-02T10:10:34;13.53;;;6.83;;
72584;SDS011;60618;40.084;32.908;2022-09-02T10:16:14;11.05;;;6.63;;
72584;SDS011;60618;40.084;32.908;2022-09-02T10:19:16;10.30;;;7.00;;
72584;SDS011;60618;40.084;32.908;2022-09-02T10:21:56;11.95;;;7.07;;
72584;SDS011;60618;40.084;32.908;2022-09-02T10:30:23;11.30;;;7.25;;
72584;SDS011;60618;40.084;32.908;2022-09-02T10:35:42;10.32;;;5.90;;
72584;SDS011;60618;40.084;32.908;2022-09-02T10:38:18;12.63;;;6.33;;
72584;SDS011;60618;40.084;32.908;2022-09-02T10:41:00;11.75;;;6.55;;
72584;SDS011;60618;40.084;32.908;2022-09-02T10:46:10;12.57;;;6.50;;
72584;SDS011;60618;40.084;32.908;2022-09-02T10:57:08;10.18;;;6.45;;
72584;SDS011;60618;40.084;32.908;2022-09-02T11:02:24;12.43;;;6.60;;
72584;SDS011;60618;40.084;32.908;2022-09-02T11:04:58;9.40;;;6.00;;
72584;SDS011;60618;40.084;32.908;2022-09-02T11:07:32;10.38;;;6.45;;
72584;SDS011;60618;40.084;32.908;2022-09-02T11:10:14;9.45;;;6.45;;
72584;SDS011;60618;40.084;32.908;2022-09-02T11:12:51;10.07;;;6.18;;
72584;SDS011;60618;40.084;32.908;2022-09-02T11:20:47;14.05;;;6.50;;
72584;SDS011;60618;40.084;32.908;2022-09-02T11:36:30;11.85;;;6.05;;
72584;SDS011;60618;40.084;32.908;2022-09-02T11:39:08;9.82;;;5.85;;
72584;SDS011;60618;40.084;32.908;2022-09-02T11:52:43;10.63;;;6.50;;
72584;SDS011;60618;40.084;32.908;2022-09-02T11:58:33;7.93;;;5.80;;
72584;SDS011;60618;40.084;32.908;2022-09-02T12:01:15;8.82;;;5.53;;
72584;SDS011;60618;40.084;32.908;2022-09-02T12:09:43;11.68;;;6.15;;
72584;SDS011;60618;40.084;32.908;2022-09-02T12:17:38;7.45;;;5.20;;
72584;SDS011;60618;40.084;32.908;2022-09-02T12:23:04;7.38;;;4.25;;
72584;SDS011;60618;40.084;32.908;2022-09-02T12:25:34;8.73;;;5.43;;
72584;SDS011;60618;40.084;32.908;2022-09-02T12:28:16;6.90;;;5.03;;
72584;SDS011;60618;40.084;32.908;2022-09-02T12:33:34;9.82;;;5.35;;
72584;SDS011;60618;40.084;32.908;2022-09-02T12:36:03;8.07;;;5.30;;
72584;SDS011;60618;40.084;32.908;2022-09-02T12:38:39;9.33;;;5.60;;
72584;SDS011;60618;40.084;32.908;2022-09-02T12:43:49;10.75;;;6.28;;
72584;SDS011;60618;40.084;32.908;2022-09-02T12:46:32;9.55;;;5.30;;
72584;SDS011;60618;40.084;32.908;2022-09-02T12:52:11;13.00;;;6.33;;
72584;SDS011;60618;40.084;32.908;2022-09-02T12:57:50;11.73;;;7.13;;
72584;SDS011;60618;40.084;32.908;2022-09-02T13:03:00;10.18;;;6.60;;
72584;SDS011;60618;40.084;32.908;2022-09-02T13:05:48;8.40;;;5.57;;
72584;SDS011;60618;40.084;32.908;2022-09-02T13:22:36;10.95;;;6.40;;
72584;SDS011;60618;40.084;32.908;2022-09-02T13:31:13;11.48;;;6.60;;
72584;SDS011;60618;40.084;32.908;2022-09-02T13:34:04;9.47;;;6.00;;
72584;SDS011;60618;40.084;32.908;2022-09-02T13:36:36;9.82;;;7.03;;
72584;SDS011;60618;40.084;32.908;2022-09-02T13:41:45;11.35;;;7.20;;
72584;SDS011;60618;40.084;32.908;2022-09-02T13:44:23;10.63;;;6.75;;
72584;SDS011;60618;40.084;32.908;2022-09-02T13:47:04;12.40;;;6.80;;
72584;SDS011;60618;40.084;32.908;2022-09-02T13:49:44;9.32;;;6.57;;
72584;SDS011;60618;40.084;32.908;2022-09-02T13:52:16;10.65;;;6.75;;
72584;SDS011;60618;40.084;32.908;2022-09-02T13:54:59;10.10;;;6.47;;
72584;SDS011;60618;40.084;32.908;2022-09-02T13:57:26;9.27;;;6.38;;
72584;SDS011;60618;40.084;32.908;2022-09-02T13:59:55;11.13;;;6.63;;
72584;SDS011;60618;40.084;32.908;2022-09-02T14:04:58;12.43;;;6.28;;
72584;SDS011;60618;40.084;32.908;2022-09-02T14:07:34;10.00;;;6.00;;
72584;SDS011;60618;40.084;32.908;2022-09-02T14:10:06;8.38;;;6.20;;
72584;SDS011;60618;40.084;32.908;2022-09-02T14:12:35;8.47;;;6.00;;
72584;SDS011;60618;40.084;32.908;2022-09-02T14:15:05;9.60;;;6.40;;
72584;SDS011;60618;40.084;32.908;2022-09-02T14:17:35;9.77;;;6.32;;
72584;SDS011;60618;40.084;32.908;2022-09-02T14:22:41;9.38;;;6.38;;
72584;SDS011;60618;40.084;32.908;2022-09-02T14:25:12;10.33;;;6.30;;
72584;SDS011;60618;40.084;32.908;2022-09-02T14:27:50;9.60;;;6.20;;
72584;SDS011;60618;40.084;32.908;2022-09-02T14:30:28;10.63;;;6.70;;
72584;SDS011;60618;40.084;32.908;2022-09-02T14:35:53;11.68;;;6.05;;
72584;SDS011;60618;40.084;32.908;2022-09-02T14:41:18;12.45;;;7.03;;
72584;SDS011;60618;40.084;32.908;2022-09-02T14:43:59;10.70;;;6.97;;
72584;SDS011;60618;40.084;32.908;2022-09-02T14:46:45;9.85;;;6.82;;
72584;SDS011;60618;40.084;32.908;2022-09-02T14:51:52;10.93;;;6.93;;
72584;SDS011;60618;40.084;32.908;2022-09-02T14:59:59;8.68;;;5.80;;
72584;SDS011;60618;40.084;32.908;2022-09-02T15:02:30;11.32;;;6.38;;
72584;SDS011;60618;40.084;32.908;2022-09-02T15:05:00;9.37;;;6.10;;
72584;SDS011;60618;40.084;32.908;2022-09-02T15:07:30;8.40;;;6.03;;
72584;SDS011;60618;40.084;32.908;2022-09-02T15:09:57;9.10;;;6.45;;
72584;SDS011;60618;40.084;32.908;2022-09-02T15:12:25;9.98;;;6.15;;
72584;SDS011;60618;40.084;32.908;2022-09-02T15:14:54;9.90;;;6.35;;
72584;SDS011;60618;40.084;32.908;2022-09-02T15:17:22;9.20;;;5.90;;
72584;SDS011;60618;40.084;32.908;2022-09-02T15:19:49;7.97;;;5.80;;
72584;SDS011;60618;40.084;32.908;2022-09-02T15:22:17;7.88;;;5.00;;
72584;SDS011;60618;40.084;32.908;2022-09-02T15:24:44;8.32;;;5.00;;
72584;SDS011;60618;40.084;32.908;2022-09-02T15:27:11;8.65;;;5.28;;
72584;SDS011;60618;40.084;32.908;2022-09-02T15:29:39;9.50;;;5.23;;
72584;SDS011;60618;40.084;32.908;2022-09-02T15:32:06;8.90;;;5.10;;
72584;SDS011;60618;40.084;32.908;2022-09-02T15:34:33;8.73;;;5.28;;
72584;SDS011;60618;40.084;32.908;2022-09-02T15:37:00;7.18;;;5.07;;
72584;SDS011;60618;40.084;32.908;2022-09-02T15:39:28;8.32;;;4.68;;
72584;SDS011;60618;40.084;32.908;2022-09-02T15:41:55;7.53;;;4.67;;
72584;SDS011;60618;40.084;32.908;2022-09-02T15:44:23;6.90;;;4.28;;
72584;SDS011;60618;40.084;32.908;2022-09-02T15:46:53;7.75;;;4.40;;
72584;SDS011;60618;40.084;32.908;2022-09-02T15:49:21;7.50;;;4.15;;
72584;SDS011;60618;40.084;32.908;2022-09-02T15:51:49;8.25;;;4.65;;
72584;SDS011;60618;40.084;32.908;2022-09-02T15:54:22;9.00;;;4.57;;
72584;SDS011;60618;40.084;32.908;2022-09-02T15:56:52;8.45;;;4.28;;
72584;SDS011;60618;40.084;32.908;2022-09-02T15:59:21;8.50;;;4.65;;
72584;SDS011;60618;40.084;32.908;2022-09-02T16:01:53;9.13;;;4.18;;
72584;SDS011;60618;40.084;32.908;2022-09-02T16:04:22;6.45;;;4.15;;
72584;SDS011;60618;40.084;32.908;2022-09-02T16:06:50;8.10;;;4.17;;
72584;SDS011;60618;40.084;32.908;2022-09-02T16:09:17;6.80;;;4.00;;
72584;SDS011;60618;40.084;32.908;2022-09-02T16:11:46;7.80;;;4.25;;
72584;SDS011;60618;40.084;32.908;2022-09-02T16:14:15;7.28;;;4.20;;
72584;SDS011;60618;40.084;32.908;2022-09-02T16:16:46;11.45;;;4.00;;
72584;SDS011;60618;40.084;32.908;2022-09-02T16:19:13;7.03;;;4.13;;
72584;SDS011;60618;40.084;32.908;2022-09-02T16:21:40;10.73;;;4.35;;
72584;SDS011;60618;40.084;32.908;2022-09-02T16:24:07;8.43;;;4.65;;
72584;SDS011;60618;40.084;32.908;2022-09-02T16:26:38;9.93;;;4.03;;
72584;SDS011;60618;40.084;32.908;2022-09-02T16:29:07;7.55;;;4.30;;
72584;SDS011;60618;40.084;32.908;2022-09-02T16:31:38;8.53;;;4.10;;
72584;SDS011;60618;40.084;32.908;2022-09-02T16:34:08;6.97;;;4.00;;
72584;SDS011;60618;40.084;32.908;2022-09-02T16:36:37;10.00;;;3.70;;
72584;SDS011;60618;40.084;32.908;2022-09-02T16:39:06;7.95;;;3.75;;
72584;SDS011;60618;40.084;32.908;2022-09-02T16:41:41;8.50;;;4.10;;
72584;SDS011;60618;40.084;32.908;2022-09-02T16:44:13;9.90;;;4.30;;
72584;SDS011;60618;40.084;32.908;2022-09-02T16:46:42;8.02;;;4.20;;
72584;SDS011;60618;40.084;32.908;2022-09-02T16:49:11;8.60;;;4.15;;
72584;SDS011;60618;40.084;32.908;2022-09-02T16:51:39;8.43;;;4.45;;
72584;SDS011;60618;40.084;32.908;2022-09-02T16:54:07;8.63;;;3.97;;
72584;SDS011;60618;40.084;32.908;2022-09-02T16:56:46;8.73;;;4.20;;
72584;SDS011;60618;40.084;32.908;2022-09-02T16:59:13;9.13;;;4.10;;
72584;SDS011;60618;40.084;32.908;2022-09-02T17:01:40;8.18;;;3.88;;
72584;SDS011;60618;40.084;32.908;2022-09-02T17:04:07;6.50;;;3.60;;
72584;SDS011;60618;40.084;32.908;2022-09-02T17:06:34;9.93;;;3.88;;
72584;SDS011;60618;40.084;32.908;2022-09-02T17:09:07;9.07;;;3.90;;
72584;SDS011;60618;40.084;32.908;2022-09-02T17:11:35;7.15;;;3.65;;
72584;SDS011;60618;40.084;32.908;2022-09-02T17:14:07;7.75;;;3.53;;
72584;SDS011;60618;40.084;32.908;2022-09-02T17:16:36;8.80;;;3.58;;
72584;SDS011;60618;40.084;32.908;2022-09-02T17:19:08;7.78;;;3.45;;
72584;SDS011;60618;40.084;32.908;2022-09-02T17:21:37;7.47;;;3.53;;